Time;durP1;ratioP1;P1;durP2;ratioP2;P2;SDS_P1;SDS_P2;PMS_P1;PMS_P2;Temp;Humidity;BMP_temperature;BMP_pressure;BME280_temperature;BME280_humidity;BME280_pressure;Samples;Min_cycle;Max_cycle;Signal;HPM_P1;HPM_P2
2021/04/28 00:00:12;;;;;;;22.35;17.95;;;256.30;2252.80;;;;;;5051107;28;20032;-78
2021/04/28 00:02:38;;;;;;;25.63;17.33;;;256.30;2252.80;;;;;;5049972;28;20572;-77
2021/04/28 00:05:06;;;;;;;24.95;17.80;;;256.40;2252.80;;;;;;5050056;28;20128;-78
2021/04/28 00:07:32;;;;;;;30.08;19.48;;;256.40;2252.80;;;;;;5050225;28;20517;-77
2021/04/28 00:09:58;;;;;;;21.48;15.75;;;256.40;2252.80;;;;;;5056296;28;20025;-78
2021/04/28 00:12:24;;;;;;;21.95;16.33;;;256.40;2252.80;;;;;;5053049;28;20055;-77
2021/04/28 00:14:49;;;;;;;21.98;17.58;;;256.40;2252.80;;;;;;5055475;28;20672;-78
2021/04/28 00:17:15;;;;;;;28.58;19.67;;;256.30;2252.80;;;;;;5056199;28;20664;-77
2021/04/28 00:19:41;;;;;;;24.73;18.33;;;256.40;2252.80;;;;;;5050382;28;20087;-77
2021/04/28 00:22:06;;;;;;;22.98;17.45;;;256.40;2252.80;;;;;;5068554;28;20438;-77
2021/04/28 00:24:32;;;;;;;28.77;17.15;;;256.40;2252.80;;;;;;5059444;28;20123;-77
2021/04/28 00:26:58;;;;;;;27.23;18.08;;;256.40;2252.80;;;;;;5051498;28;20086;-78
2021/04/28 00:29:24;;;;;;;25.55;18.52;;;256.40;2252.80;;;;;;5056847;28;20411;-77
2021/04/28 00:31:51;;;;;;;25.08;17.40;;;256.40;2252.80;;;;;;5051734;28;20033;-79
2021/04/28 00:34:16;;;;;;;27.42;18.30;;;256.30;2252.80;;;;;;5064035;28;20029;-77
2021/04/28 00:36:42;;;;;;;25.23;17.73;;;256.30;2252.80;;;;;;5054874;28;20098;-77
2021/04/28 00:39:08;;;;;;;25.05;17.63;;;256.30;2252.80;;;;;;5071518;28;20025;-77
2021/04/28 00:41:34;;;;;;;28.20;18.00;;;256.30;2252.80;;;;;;5057737;28;20507;-77
2021/04/28 00:44:00;;;;;;;30.05;18.75;;;256.30;2252.80;;;;;;5055141;28;20025;-77
2021/04/28 00:46:26;;;;;;;24.58;18.23;;;256.30;2252.80;;;;;;5054214;28;20116;-77
2021/04/28 00:48:52;;;;;;;26.02;18.90;;;256.30;2252.80;;;;;;5044799;28;20045;-78
2021/04/28 00:51:18;;;;;;;26.55;18.30;;;256.30;2252.80;;;;;;5054342;28;20040;-78
2021/04/28 00:53:43;;;;;;;24.98;19.60;;;256.30;2252.80;;;;;;5054529;28;20025;-78
2021/04/28 00:56:09;;;;;;;28.45;19.38;;;256.40;2252.80;;;;;;5052316;28;20377;-78
2021/04/28 00:58:36;;;;;;;30.60;18.92;;;256.40;2252.80;;;;;;5069828;28;20375;-77
2021/04/28 01:01:02;;;;;;;26.35;20.17;;;256.40;2252.80;;;;;;5055008;28;20021;-77
2021/04/28 01:03:29;;;;;;;24.10;17.48;;;256.40;2252.80;;;;;;5070053;28;20032;-78
2021/04/28 01:06:06;;;;;;;25.60;18.50;;;256.30;2252.80;;;;;;5054704;28;20043;-77
2021/04/28 01:08:33;;;;;;;26.52;17.60;;;256.40;2252.80;;;;;;5054527;28;20017;-78
2021/04/28 01:10:59;;;;;;;26.73;19.23;;;256.40;2252.80;;;;;;5069788;28;20499;-78
2021/04/28 01:13:25;;;;;;;26.27;20.05;;;256.50;2252.80;;;;;;5053277;28;20565;-78
2021/04/28 01:15:52;;;;;;;33.97;23.77;;;256.50;2252.80;;;;;;5053408;28;20033;-79
2021/04/28 01:18:19;;;;;;;28.92;22.55;;;256.50;2252.80;;;;;;5053453;28;20480;-78
2021/04/28 01:20:47;;;;;;;31.88;23.50;;;256.50;2252.80;;;;;;5054502;28;20099;-78
2021/04/28 01:23:14;;;;;;;30.95;23.13;;;256.60;2252.80;;;;;;5053012;28;20044;-79
2021/04/28 01:25:40;;;;;;;29.67;23.83;;;256.60;2252.80;;;;;;5052158;28;20029;-78
2021/04/28 01:28:12;;;;;;;38.00;27.02;;;256.60;2252.80;;;;;;5069672;28;20075;-77
2021/04/28 01:31:08;;;;;;;41.08;29.35;;;256.60;2252.80;;;;;;5053941;28;20431;-77
2021/04/28 01:33:44;;;;;;;30.05;21.63;;;256.70;2252.80;;;;;;5052564;28;20043;-77
2021/04/28 01:36:17;;;;;;;29.88;22.70;;;256.60;2252.80;;;;;;5052512;28;20388;-77
2021/04/28 01:38:46;;;;;;;28.75;19.30;;;256.60;2252.80;;;;;;5052792;28;20455;-78
2021/04/28 01:41:13;;;;;;;26.05;19.55;;;256.60;2252.80;;;;;;5052174;28;20056;-78
2021/04/28 01:43:41;;;;;;;28.98;19.80;;;256.50;2252.80;;;;;;5053142;28;20041;-79
2021/04/28 01:46:08;;;;;;;29.63;21.90;;;256.60;2252.80;;;;;;5069301;28;20024;-78
2021/04/28 01:48:35;;;;;;;34.33;23.80;;;256.60;2252.80;;;;;;5053981;28;20021;-78
2021/04/28 01:51:01;;;;;;;36.60;27.02;;;256.60;2252.80;;;;;;5053755;28;20028;-79
2021/04/28 01:53:27;;;;;;;42.38;29.52;;;256.60;2252.80;;;;;;5053931;28;20032;-78
2021/04/28 01:55:55;;;;;;;44.65;30.10;;;256.70;2252.80;;;;;;5051926;28;20017;-79
2021/04/28 01:58:22;;;;;;;36.13;26.08;;;256.70;2252.80;;;;;;5054099;28;20032;-78
2021/04/28 02:00:49;;;;;;;38.17;28.20;;;256.80;2252.80;;;;;;5053883;28;20025;-79
2021/04/28 02:03:15;;;;;;;34.20;26.98;;;256.70;2252.80;;;;;;5052310;28;20033;-79
2021/04/28 02:05:42;;;;;;;30.08;23.95;;;256.80;2252.80;;;;;;5067974;28;20043;-79
2021/04/28 02:08:08;;;;;;;26.40;19.10;;;256.80;2252.80;;;;;;5053587;28;20009;-78
2021/04/28 02:10:35;;;;;;;27.25;18.92;;;256.80;2252.80;;;;;;5053489;28;20021;-78
2021/04/28 02:13:01;;;;;;;29.25;20.58;;;256.80;2252.80;;;;;;5053358;28;20028;-79
2021/04/28 02:15:28;;;;;;;28.92;21.23;;;256.90;2252.80;;;;;;5052890;28;20029;-78
2021/04/28 02:18:01;;;;;;;29.55;19.75;;;256.90;2252.80;;;;;;5053175;28;20032;-79
2021/04/28 02:20:28;;;;;;;27.45;19.23;;;256.90;2252.80;;;;;;5051843;28;20107;-78
2021/04/28 02:22:55;;;;;;;29.05;20.80;;;281.60;2278.40;;;;;;5067916;28;20114;-79
2021/04/28 02:25:21;;;;;;;29.40;21.13;;;281.60;2278.40;;;;;;5051770;28;20119;-79
2021/04/28 02:27:52;;;;;;;29.15;20.90;;;281.60;2278.40;;;;;;5053193;28;20096;-78
2021/04/28 02:30:19;;;;;;;30.00;20.48;;;281.60;2278.40;;;;;;5067750;28;20450;-79
2021/04/28 02:32:45;;;;;;;35.25;23.20;;;281.60;2278.40;;;;;;5051096;28;20495;-77
2021/04/28 02:35:13;;;;;;;27.35;21.42;;;281.60;2278.40;;;;;;5052926;28;20040;-78
2021/04/28 02:37:41;;;;;;;30.77;22.90;;;256.90;2252.80;;;;;;5056831;28;20107;-78
2021/04/28 02:40:10;;;;;;;35.80;24.45;;;281.60;2278.40;;;;;;5052636;28;20031;-77
2021/04/28 02:42:36;;;;;;;29.30;21.67;;;281.60;2278.40;;;;;;5051499;28;20122;-77
2021/04/28 02:45:05;;;;;;;30.42;21.05;;;281.60;2278.40;;;;;;5049302;28;20526;-77
2021/04/28 02:47:33;;;;;;;34.55;23.75;;;281.60;2278.40;;;;;;5068147;28;20131;-78
2021/04/28 02:50:00;;;;;;;37.35;24.65;;;281.60;2278.40;;;;;;5052823;28;20025;-78
2021/04/28 02:52:29;;;;;;;35.55;26.02;;;281.60;2278.40;;;;;;5052524;28;20021;-78
2021/04/28 02:54:55;;;;;;;34.90;23.52;;;281.60;2278.40;;;;;;5067611;28;20434;-78
2021/04/28 02:57:22;;;;;;;36.33;24.48;;;281.60;2278.40;;;;;;5051175;28;20028;-77
2021/04/28 02:59:50;;;;;;;36.88;26.70;;;281.60;2278.40;;;;;;5052670;28;20025;-77
2021/04/28 03:02:16;;;;;;;39.60;28.98;;;281.60;2278.40;;;;;;5052339;28;20456;-77
2021/04/28 03:04:42;;;;;;;33.83;24.98;;;281.60;2278.40;;;;;;5052469;28;20039;-77
2021/04/28 03:07:12;;;;;;;32.53;24.42;;;281.70;2278.40;;;;;;5052348;28;20066;-77
2021/04/28 03:09:40;;;;;;;29.58;20.75;;;281.60;2278.40;;;;;;5051222;28;20052;-77
2021/04/28 03:12:06;;;;;;;32.03;21.70;;;281.60;2278.40;;;;;;5065130;28;20025;-77
2021/04/28 03:14:32;;;;;;;33.20;21.90;;;281.60;2278.40;;;;;;5052380;28;20021;-77
2021/04/28 03:16:58;;;;;;;35.75;23.10;;;281.60;2278.40;;;;;;5051903;28;20040;-78
2021/04/28 03:19:24;;;;;;;33.17;23.58;;;281.60;2278.40;;;;;;5051487;28;20091;-78
2021/04/28 03:21:50;;;;;;;32.72;22.60;;;281.60;2278.40;;;;;;5050398;28;20479;-78
2021/04/28 03:24:17;;;;;;;29.88;21.67;;;281.60;2278.40;;;;;;5052079;28;20029;-78
2021/04/28 03:26:43;;;;;;;30.17;21.15;;;281.60;2278.40;;;;;;5050920;28;20049;-78
2021/04/28 03:29:09;;;;;;;30.00;21.95;;;281.60;2278.40;;;;;;5045353;28;20025;-78
2021/04/28 03:31:35;;;;;;;30.60;23.02;;;281.60;2278.40;;;;;;5051843;28;20399;-79
2021/04/28 03:34:01;;;;;;;32.05;22.23;;;281.60;2278.40;;;;;;5052379;28;20086;-78
2021/04/28 03:36:27;;;;;;;30.42;22.73;;;281.70;2278.40;;;;;;5050958;28;20439;-78
2021/04/28 03:38:53;;;;;;;30.58;21.75;;;281.60;2278.40;;;;;;5050813;28;20067;-78
2021/04/28 03:41:19;;;;;;;32.90;23.70;;;281.60;2278.40;;;;;;5052304;28;20112;-79
2021/04/28 03:43:45;;;;;;;30.33;21.20;;;281.70;2278.40;;;;;;5050231;28;20037;-78
2021/04/28 03:46:12;;;;;;;30.95;23.23;;;281.60;2278.40;;;;;;5054221;28;20063;-78
2021/04/28 03:48:38;;;;;;;33.45;23.17;;;281.60;2278.40;;;;;;5037710;28;20068;-77
2021/04/28 03:51:04;;;;;;;31.63;24.35;;;281.60;2278.40;;;;;;5052260;28;20033;-77
2021/04/28 03:53:30;;;;;;;32.15;23.33;;;281.70;2278.40;;;;;;5051831;28;20025;-78
2021/04/28 03:55:55;;;;;;;30.73;23.42;;;281.70;2278.40;;;;;;5050922;28;20502;-79
2021/04/28 03:58:21;;;;;;;34.88;23.33;;;281.70;2278.40;;;;;;5038780;28;20033;-78
2021/04/28 04:00:47;;;;;;;37.45;26.67;;;281.70;2278.40;;;;;;5036134;28;20128;-80
2021/04/28 04:03:14;;;;;;;35.15;23.40;;;281.70;2278.40;;;;;;5050118;28;20428;-77
2021/04/28 04:05:40;;;;;;;35.15;25.58;;;281.70;2278.40;;;;;;5050181;28;20040;-77
2021/04/28 04:08:05;;;;;;;34.88;25.42;;;281.80;2278.40;;;;;;5054970;28;20025;-77
2021/04/28 04:10:31;;;;;;;33.28;25.00;;;281.80;2278.40;;;;;;5054525;28;20175;-78
2021/04/28 04:12:57;;;;;;;35.20;24.17;;;281.90;2278.40;;;;;;5055663;28;20025;-78
2021/04/28 04:15:23;;;;;;;34.60;23.42;;;281.90;2278.40;;;;;;5055545;28;20040;-78
2021/04/28 04:17:49;;;;;;;33.40;24.27;;;282.00;2278.40;;;;;;5055828;28;20100;-78
2021/04/28 04:20:14;;;;;;;31.67;22.13;;;282.00;2278.40;;;;;;5055624;28;20360;-78
2021/04/28 04:22:40;;;;;;;31.63;22.23;;;282.00;2278.40;;;;;;5055677;28;20021;-78
2021/04/28 04:25:07;;;;;;;32.45;21.80;;;281.90;2278.40;;;;;;5054723;28;20025;-77
2021/04/28 04:27:34;;;;;;;28.73;22.77;;;282.00;2278.40;;;;;;5054221;28;20078;-78
2021/04/28 04:30:03;;;;;;;35.15;23.42;;;281.90;2278.40;;;;;;5055337;28;20017;-79
2021/04/28 04:32:29;;;;;;;29.75;22.70;;;281.90;2278.40;;;;;;5053953;28;20067;-78
2021/04/28 04:34:55;;;;;;;27.85;20.52;;;281.90;2278.40;;;;;;5055144;28;20048;-78
2021/04/28 04:37:20;;;;;;;36.58;20.45;;;281.90;2278.40;;;;;;5055538;28;20100;-79
2021/04/28 04:39:46;;;;;;;30.75;20.85;;;281.90;2278.40;;;;;;5053718;28;20733;-78
2021/04/28 04:42:12;;;;;;;33.55;24.08;;;281.90;2278.40;;;;;;5055019;28;20059;-78
2021/04/28 04:44:38;;;;;;;30.20;22.13;;;282.00;2278.40;;;;;;5053849;28;20124;-78
2021/04/28 04:47:04;;;;;;;29.20;21.20;;;282.00;2278.40;;;;;;5068188;28;20391;-78
2021/04/28 04:49:30;;;;;;;29.58;21.25;;;282.10;2278.40;;;;;;5055392;28;20017;-78
2021/04/28 04:51:55;;;;;;;27.38;20.58;;;282.10;2278.40;;;;;;5054583;28;20033;-77
2021/04/28 04:54:21;;;;;;;30.10;20.90;;;282.10;2278.40;;;;;;5054269;28;20594;-79
2021/04/28 04:56:47;;;;;;;27.52;19.52;;;282.20;2278.40;;;;;;5053492;28;20139;-79
2021/04/28 04:59:13;;;;;;;28.23;20.00;;;282.30;2278.40;;;;;;5053940;28;20494;-79
2021/04/28 05:01:39;;;;;;;29.63;21.45;;;282.30;2278.40;;;;;;5058489;28;20098;-79
2021/04/28 05:04:05;;;;;;;27.63;20.70;;;282.30;2278.40;;;;;;5059482;28;20025;-79
2021/04/28 05:06:32;;;;;;;28.73;20.63;;;282.30;2278.40;;;;;;5058206;28;20487;-78
2021/04/28 05:08:58;;;;;;;31.95;22.02;;;282.40;2278.40;;;;;;5055090;28;20017;-78
2021/04/28 05:11:24;;;;;;;25.88;19.33;;;282.50;2278.40;;;;;;5056714;28;20484;-78
2021/04/28 05:13:49;;;;;;;29.50;20.05;;;307.20;2304.00;;;;;;5052685;28;20041;-78
2021/04/28 05:16:16;;;;;;;27.20;19.40;;;307.20;2304.00;;;;;;5063335;28;20537;-78
2021/04/28 05:18:42;;;;;;;29.92;20.98;;;307.30;2304.00;;;;;;5053342;28;20025;-78
2021/04/28 05:21:07;;;;;;;26.30;19.90;;;307.30;2304.00;;;;;;5058921;28;20444;-78
2021/04/28 05:23:33;;;;;;;28.73;21.23;;;307.30;2304.00;;;;;;5053944;28;20036;-78
2021/04/28 05:25:59;;;;;;;27.50;19.65;;;307.40;2304.00;;;;;;5056358;28;20025;-78
2021/04/28 05:28:25;;;;;;;30.15;20.73;;;307.40;2304.00;;;;;;5053828;28;20029;-78
2021/04/28 05:30:50;;;;;;;27.85;20.00;;;307.40;2304.00;;;;;;5054031;28;20051;-78
2021/04/28 05:33:16;;;;;;;24.80;18.33;;;307.60;2304.00;;;;;;5047921;28;20437;-78
2021/04/28 05:35:42;;;;;;;26.00;19.33;;;307.70;2304.00;;;;;;5050944;28;20024;-78
2021/04/28 05:38:08;;;;;;;26.55;19.92;;;307.80;2304.00;;;;;;5053898;28;20021;-78
2021/04/28 05:40:34;;;;;;;33.15;20.17;;;307.90;2304.00;;;;;;5053696;28;20376;-78
2021/04/28 05:43:00;;;;;;;25.27;19.23;;;308.10;2304.00;;;;;;5049202;28;20040;-78
2021/04/28 05:45:25;;;;;;;25.48;18.05;;;332.80;2329.60;;;;;;5055934;28;20017;-77
2021/04/28 05:47:51;;;;;;;27.52;19.88;;;332.80;2329.60;;;;;;5055379;28;20032;-77
2021/04/28 05:50:18;;;;;;;26.92;19.67;;;332.80;2329.60;;;;;;5054614;28;20391;-77
2021/04/28 05:52:44;;;;;;;30.02;21.13;;;333.00;2329.60;;;;;;5053736;28;20029;-77
2021/04/28 05:55:11;;;;;;;27.52;20.90;;;333.20;2329.60;;;;;;5052871;28;20025;-77
2021/04/28 05:57:38;;;;;;;29.15;19.38;;;333.30;2329.60;;;;;;5053964;28;20392;-78
2021/04/28 06:00:12;;;;;;;35.83;26.60;;;333.40;2329.60;;;;;;5052214;28;20606;-78
2021/04/28 06:02:38;;;;;;;37.42;28.02;;;333.50;2329.60;;;;;;5055280;28;20041;-78
2021/04/28 06:05:05;;;;;;;30.75;20.45;;;333.70;2329.60;;;;;;5052346;28;20023;-78
2021/04/28 06:07:31;;;;;;;26.25;20.23;;;358.60;2329.60;;;;;;5064404;28;20021;-79
2021/04/28 06:09:57;;;;;;;26.80;19.17;;;358.50;2329.60;;;;;;5053093;28;20028;-77
2021/04/28 06:12:23;;;;;;;22.15;17.55;;;358.60;2329.60;;;;;;5052976;28;20079;-77
2021/04/28 06:14:48;;;;;;;24.02;19.48;;;358.50;2329.60;;;;;;5055135;28;20025;-78
2021/04/28 06:17:14;;;;;;;23.75;18.75;;;358.50;2329.60;;;;;;5053108;28;20036;-77
2021/04/28 06:19:40;;;;;;;26.48;17.17;;;358.60;2329.60;;;;;;5053285;28;20049;-77
2021/04/28 06:22:05;;;;;;;23.85;17.52;;;358.60;2329.60;;;;;;5052485;28;20079;-77
2021/04/28 06:24:31;;;;;;;23.60;18.23;;;358.50;2329.60;;;;;;5051380;28;20452;-77
2021/04/28 06:26:57;;;;;;;23.75;18.02;;;358.40;2329.60;;;;;;5053590;28;20491;-77
2021/04/28 06:29:23;;;;;;;24.73;17.75;;;358.40;2329.60;;;;;;5066255;28;20021;-77
2021/04/28 06:31:49;;;;;;;24.60;18.58;;;358.40;2329.60;;;;;;5056144;28;20510;-77
2021/04/28 06:34:14;;;;;;;25.25;18.70;;;358.40;2329.60;;;;;;5052278;28;20449;-77
2021/04/28 06:36:40;;;;;;;23.23;18.08;;;358.50;2329.60;;;;;;5068459;28;20021;-76
2021/04/28 06:39:06;;;;;;;24.25;17.95;;;358.60;2329.60;;;;;;5052744;28;20111;-77
2021/04/28 06:41:32;;;;;;;27.40;19.63;;;358.50;2329.60;;;;;;5051427;28;20043;-77
2021/04/28 06:43:58;;;;;;;33.40;22.08;;;358.60;2329.60;;;;;;5052456;28;20032;-76
2021/04/28 06:46:23;;;;;;;27.25;18.25;;;358.60;2329.60;;;;;;5059042;28;20031;-77
2021/04/28 06:48:49;;;;;;;27.13;19.48;;;358.60;2329.60;;;;;;5053845;28;20025;-76
2021/04/28 06:51:15;;;;;;;26.65;20.48;;;358.60;2329.60;;;;;;5068254;28;20025;-77
2021/04/28 06:53:41;;;;;;;26.55;19.08;;;358.60;2329.60;;;;;;5051368;28;20089;-77
2021/04/28 06:56:07;;;;;;;27.02;20.00;;;358.60;2329.60;;;;;;5052650;28;20028;-78
2021/04/28 06:58:33;;;;;;;25.27;18.15;;;358.60;2329.60;;;;;;5052654;28;20040;-78
2021/04/28 07:00:59;;;;;;;24.08;17.75;;;358.70;2329.60;;;;;;5051418;28;20503;-77
2021/04/28 07:03:26;;;;;;;29.30;19.73;;;358.70;2329.60;;;;;;5056222;28;20108;-78
2021/04/28 07:05:52;;;;;;;21.42;18.20;;;358.70;2329.60;;;;;;5050559;28;20040;-79
2021/04/28 07:08:18;;;;;;;20.20;16.15;;;358.60;2329.60;;;;;;5049594;28;20029;-79
2021/04/28 07:10:44;;;;;;;25.55;19.23;;;358.60;2329.60;;;;;;5050827;28;20025;-78
2021/04/28 07:13:10;;;;;;;23.88;18.35;;;358.50;2329.60;;;;;;5050990;28;20033;-78
2021/04/28 07:15:35;;;;;;;25.35;18.88;;;358.40;2329.60;;;;;;5047799;28;20490;-77
2021/04/28 07:18:02;;;;;;;33.30;22.85;;;358.50;2329.60;;;;;;5050194;28;20028;-77
2021/04/28 07:20:29;;;;;;;38.85;25.98;;;358.50;2329.60;;;;;;5051605;28;20388;-77
2021/04/28 07:22:55;;;;;;;46.03;29.60;;;358.60;2329.60;;;;;;5051362;28;20045;-77
2021/04/28 07:25:21;;;;;;;35.75;24.40;;;358.60;2329.60;;;;;;5042599;28;20032;-77
2021/04/28 07:27:48;;;;;;;24.60;18.13;;;358.60;2329.60;;;;;;5053264;28;20060;-77
2021/04/28 07:30:16;;;;;;;27.95;18.83;;;358.60;2329.60;;;;;;5050596;28;20029;-78
2021/04/28 07:32:42;;;;;;;26.80;19.60;;;358.80;2329.60;;;;;;5049023;28;20087;-77
2021/04/28 07:35:09;;;;;;;19.10;14.75;;;358.60;2329.60;;;;;;5065943;28;20028;-77
2021/04/28 07:37:36;;;;;;;25.02;19.67;;;358.70;2329.60;;;;;;5049774;28;20119;-78
2021/04/28 07:40:04;;;;;;;19.90;15.68;;;358.60;2329.60;;;;;;5051686;28;20059;-77
2021/04/28 07:42:29;;;;;;;21.20;15.50;;;358.90;2329.60;;;;;;5050952;28;20450;-75
2021/04/28 07:44:55;;;;;;;22.65;15.05;;;359.00;2304.00;;;;;;5055385;28;20029;-79
2021/04/28 07:47:21;;;;;;;24.27;15.90;;;359.20;2278.40;;;;;;5047684;28;20467;-79
2021/04/28 07:49:47;;;;;;;21.77;15.30;;;359.30;2278.40;;;;;;5052388;28;20033;-79
2021/04/28 07:52:12;;;;;;;20.50;13.55;;;384.00;2227.20;;;;;;5056013;28;20083;-80
2021/04/28 07:54:39;;;;;;;20.33;13.88;;;359.30;2252.80;;;;;;5052009;28;20380;-78
2021/04/28 07:57:05;;;;;;;16.20;11.93;;;359.30;2252.80;;;;;;5056929;28;20032;-78
2021/04/28 07:59:31;;;;;;;27.80;18.30;;;384.10;2227.20;;;;;;5053320;28;20044;-77
2021/04/28 08:01:56;;;;;;;23.80;14.57;;;384.20;2227.20;;;;;;5054899;28;20033;-77
2021/04/28 08:04:22;;;;;;;20.00;15.40;;;384.30;2227.20;;;;;;5052199;28;20025;-77
2021/04/28 08:06:48;;;;;;;16.92;12.63;;;384.40;2176.00;;;;;;5055296;28;20411;-77
2021/04/28 08:09:14;;;;;;;23.73;14.35;;;384.30;2201.60;;;;;;5056824;28;20028;-77
2021/04/28 08:11:40;;;;;;;19.35;12.90;;;384.40;2201.60;;;;;;5044942;28;20037;-77
2021/04/28 08:14:06;;;;;;;13.00;9.05;;;384.30;2227.20;;;;;;5055310;28;20415;-77
2021/04/28 08:16:33;;;;;;;14.73;11.02;;;384.40;2201.60;;;;;;5048321;28;20498;-77
2021/04/28 08:19:03;;;;;;;19.90;12.52;;;384.50;2176.00;;;;;;5069805;28;20546;-77
2021/04/28 08:21:29;;;;;;;19.38;12.25;;;384.50;2176.00;;;;;;5055175;28;20546;-80
2021/04/28 08:23:54;;;;;;;31.15;17.98;;;384.50;2150.40;;;;;;5054262;28;20067;-80
2021/04/28 08:26:20;;;;;;;19.63;13.70;;;384.80;2150.40;;;;;;5069642;28;20029;-79
2021/04/28 08:28:47;;;;;;;28.73;16.38;;;384.90;2124.80;;;;;;5070199;28;20377;-79
2021/04/28 08:31:16;;;;;;;18.48;11.45;;;409.70;2124.80;;;;;;5053419;28;20047;-78
2021/04/28 08:33:42;;;;;;;19.85;13.82;;;409.90;2099.20;;;;;;5054955;28;20519;-78
2021/04/28 08:36:09;;;;;;;11.13;8.10;;;410.10;2099.20;;;;;;5070409;28;20025;-79
2021/04/28 08:38:35;;;;;;;12.98;9.20;;;410.10;2048.00;;;;;;5052426;28;20091;-79
2021/04/28 08:41:03;;;;;;;10.20;7.47;;;410.20;2048.00;;;;;;5053457;28;20086;-80
2021/04/28 08:43:29;;;;;;;9.20;6.63;;;410.30;2048.00;;;;;;5054979;28;20059;-79
2021/04/28 08:45:54;;;;;;;11.52;8.43;;;410.40;1996.80;;;;;;5050530;28;20029;-78
2021/04/28 08:48:21;;;;;;;9.63;7.72;;;410.50;1996.80;;;;;;5052349;28;20039;-79
2021/04/28 08:50:48;;;;;;;8.52;6.82;;;435.30;1971.20;;;;;;5055748;28;20025;-83
2021/04/28 08:53:15;;;;;;;10.82;8.23;;;410.50;1945.60;;;;;;5052447;28;20044;-79
2021/04/28 08:55:43;;;;;;;10.20;7.65;;;410.30;1996.80;;;;;;5054950;28;20108;-80
2021/04/28 08:58:10;;;;;;;11.02;8.32;;;410.20;2022.40;;;;;;5054744;28;20025;-79
2021/04/28 09:00:36;;;;;;;12.75;9.00;;;410.40;2022.40;;;;;;5052932;28;20132;-80
2021/04/28 09:03:03;;;;;;;14.73;8.07;;;410.10;2022.40;;;;;;5053228;28;20025;-79
2021/04/28 09:05:31;;;;;;;13.23;8.40;;;409.80;2022.40;;;;;;5045071;28;20116;-78
2021/04/28 09:07:57;;;;;;;11.20;8.13;;;409.80;2048.00;;;;;;5053235;28;20410;-79
2021/04/28 09:10:25;;;;;;;13.57;9.70;;;410.10;2048.00;;;;;;5051292;28;20062;-78
2021/04/28 09:13:22;;;;;;;10.55;8.60;;;409.80;2073.60;;;;;;5052772;28;20025;-78
2021/04/28 09:15:49;;;;;;;10.93;8.13;;;409.80;2073.60;;;;;;5050149;28;20021;-77
2021/04/28 09:18:32;;;;;;;10.55;8.85;;;409.80;2099.20;;;;;;5050803;28;20380;-78
2021/04/28 09:20:59;;;;;;;9.95;7.88;;;409.90;2073.60;;;;;;5050733;28;20052;-78
2021/04/28 09:23:34;;;;;;;8.88;7.13;;;409.90;2073.60;;;;;;5051182;28;20087;-77
2021/04/28 09:26:00;;;;;;;15.43;10.35;;;409.90;2073.60;;;;;;5048041;28;20025;-76
2021/04/28 09:28:36;;;;;;;12.65;10.63;;;409.80;2073.60;;;;;;5044764;28;20551;-78
2021/04/28 09:31:08;;;;;;;8.15;6.53;;;409.60;2073.60;;;;;;5051056;28;20651;-78
2021/04/28 09:33:52;;;;;;;14.30;8.65;;;409.60;2073.60;;;;;;5075426;28;20068;-77
2021/04/28 09:36:28;;;;;;;8.90;7.30;;;409.80;2073.60;;;;;;5052794;28;20025;-78
2021/04/28 09:39:10;;;;;;;14.52;10.32;;;409.80;2099.20;;;;;;5050126;28;20028;-78
2021/04/28 09:41:43;;;;;;;9.20;7.53;;;410.00;2073.60;;;;;;5047141;28;20067;-77
2021/04/28 09:44:18;;;;;;;13.00;10.82;;;409.80;2073.60;;;;;;5044848;28;20384;-77
2021/04/28 09:47:16;;;;;;;12.90;9.85;;;409.90;2099.20;;;;;;5060906;28;20506;-78
2021/04/28 09:49:48;;;;;;;14.15;10.82;;;410.30;2073.60;;;;;;5049343;28;20112;-79
2021/04/28 09:52:24;;;;;;;10.50;8.05;;;410.50;2073.60;;;;;;5066882;28;20041;-79
2021/04/28 09:54:52;;;;;;;11.38;8.82;;;435.40;1996.80;;;;;;5067926;28;20024;-79
2021/04/28 09:57:32;;;;;;;13.30;10.23;;;435.40;1996.80;;;;;;5050450;28;20024;-79
2021/04/28 09:59:57;;;;;;;11.35;7.88;;;435.20;2022.40;;;;;;5051965;28;20035;-78
2021/04/28 10:02:29;;;;;;;12.63;8.75;;;435.20;1996.80;;;;;;5050649;28;20029;-78
2021/04/28 10:05:17;;;;;;;11.35;9.07;;;410.40;1996.80;;;;;;5043177;28;20029;-78
2021/04/28 10:07:43;;;;;;;13.77;10.15;;;410.20;2022.40;;;;;;5051028;28;20025;-80
2021/04/28 10:10:10;;;;;;;12.63;9.05;;;410.20;2048.00;;;;;;5066410;28;20028;-77
2021/04/28 10:12:36;;;;;;;11.23;7.93;;;410.10;2073.60;;;;;;5048364;28;20444;-78
2021/04/28 10:15:04;;;;;;;11.07;8.52;;;409.80;2099.20;;;;;;5048858;28;20482;-79
2021/04/28 10:17:32;;;;;;;11.57;9.30;;;409.80;2099.20;;;;;;5048615;28;20056;-78
2021/04/28 10:19:58;;;;;;;12.70;8.15;;;409.80;2099.20;;;;;;5049241;28;20037;-78
2021/04/28 10:22:25;;;;;;;15.18;9.65;;;409.80;2124.80;;;;;;5050970;28;20103;-79
2021/04/28 10:24:53;;;;;;;14.23;10.57;;;410.00;2073.60;;;;;;5050237;28;20028;-79
2021/04/28 10:27:19;;;;;;;14.05;10.00;;;410.10;2073.60;;;;;;5052190;28;20024;-80
2021/04/28 10:29:51;;;;;;;21.10;13.90;;;410.30;2048.00;;;;;;5052089;28;20029;-79
2021/04/28 10:32:19;;;;;;;19.20;14.10;;;410.40;2048.00;;;;;;5050271;28;20041;-80
2021/04/28 10:35:09;;;;;;;13.35;10.25;;;410.50;2048.00;;;;;;5052791;28;20029;-81
2021/04/28 10:37:37;;;;;;;13.38;9.05;;;435.20;2022.40;;;;;;5040657;28;20029;-80
2021/04/28 10:40:14;;;;;;;10.75;8.35;;;435.40;2022.40;;;;;;5058250;28;20029;-81
2021/04/28 10:42:41;;;;;;;20.67;14.57;;;435.40;1971.20;;;;;;5047540;28;20032;-81
2021/04/28 10:45:11;;;;;;;12.35;9.57;;;435.60;1945.60;;;;;;5066813;28;20506;-81
2021/04/28 10:47:40;;;;;;;16.55;11.73;;;435.50;1945.60;;;;;;5062253;28;20079;-80
2021/04/28 10:50:25;;;;;;;15.77;10.27;;;435.90;1945.60;;;;;;5050420;28;20084;-81
2021/04/28 10:53:01;;;;;;;13.00;9.43;;;435.90;1894.40;;;;;;5048154;28;20063;-83
2021/04/28 10:55:39;;;;;;;17.23;11.48;;;435.70;1894.40;;;;;;5050252;28;20388;-81
2021/04/28 10:58:25;;;;;;;18.98;10.73;;;435.70;1945.60;;;;;;5058395;28;20047;-81
2021/04/28 11:01:04;;;;;;;18.73;11.70;;;435.70;1894.40;;;;;;5040406;28;20057;-82
2021/04/28 11:03:33;;;;;;;14.45;9.45;;;435.90;1843.20;;;;;;5043164;28;20128;-81
2021/04/28 11:06:23;;;;;;;13.50;8.77;;;436.10;1843.20;;;;;;5069118;28;20095;-81
2021/04/28 11:09:02;;;;;;;10.50;7.75;;;460.80;1868.80;;;;;;5046276;28;20071;-81
2021/04/28 11:11:34;;;;;;;13.25;10.45;;;461.00;1843.20;;;;;;5052035;28;20108;-81
2021/04/28 11:14:09;;;;;;;11.35;8.90;;;461.20;1817.60;;;;;;5053225;28;20026;-81
2021/04/28 11:16:40;;;;;;;16.80;11.00;;;461.30;1817.60;;;;;;5055773;28;20083;-81
2021/04/28 11:19:27;;;;;;;14.32;10.88;;;461.50;1792.00;;;;;;5050050;28;20025;-82
2021/04/28 11:22:28;;;;;;;16.13;12.05;;;486.40;1766.40;;;;;;5050442;28;20491;-81
2021/04/28 11:25:04;;;;;;;15.77;11.00;;;486.40;1792.00;;;;;;5043421;28;20029;-80
2021/04/28 11:27:44;;;;;;;18.47;12.27;;;486.90;1766.40;;;;;;5055328;28;20013;-80
2021/04/28 11:30:27;;;;;;;17.38;12.75;;;487.00;1740.80;;;;;;5049566;28;20387;-81
2021/04/28 11:33:24;;;;;;;12.98;9.85;;;487.20;1715.20;;;;;;5040276;28;20041;-81
2021/04/28 11:35:54;;;;;;;18.83;9.20;;;512.00;1689.60;;;;;;5043089;28;20499;-80
2021/04/28 11:38:30;;;;;;;10.82;9.55;;;512.50;1664.00;;;;;;5049663;28;20029;-81
2021/04/28 11:41:00;;;;;;;;;;;537.60;1612.80;;;;;;5052366;28;20083;-81
2021/04/28 11:43:28;;;;;;;12.38;10.30;;;563.30;1587.20;;;;;;5050958;28;19916;-81
2021/04/28 11:46:04;;;;;;;16.17;10.20;;;563.30;1587.20;;;;;;5047431;28;20017;-81
2021/04/28 11:48:31;;;;;;;11.60;9.50;;;563.60;1561.60;;;;;;5050580;28;20116;-81
2021/04/28 11:51:02;;;;;;;15.63;12.30;;;563.60;1536.00;;;;;;5052892;28;20018;-80
2021/04/28 11:53:30;;;;;;;16.20;12.40;;;563.80;1536.00;;;;;;5049098;28;20484;-80
2021/04/28 11:55:56;;;;;;;14.98;11.10;;;563.90;1510.40;;;;;;5064738;28;20040;-79
2021/04/28 11:58:22;;;;;;;13.82;10.35;;;564.10;1536.00;;;;;;5050342;28;20021;-81
2021/04/28 12:00:48;;;;;;;16.63;11.40;;;564.00;1510.40;;;;;;5049415;28;20037;-81
2021/04/28 12:03:14;;;;;;;16.17;11.38;;;564.00;1536.00;;;;;;5047090;28;20112;-81
2021/04/28 12:05:40;;;;;;;16.02;9.98;;;564.00;1510.40;;;;;;5062929;28;20021;-81